Bookmark and Share
Track history (hours):
 

CSAV Lonquen

Last reported at 2014-Apr-17 06:34 UTC. Time now 2014-Apr-17 06:46 UTC.
Position N 50°16' W 000°29'.

Length 261 m; draft 9.9 m.

Type: Ship (hazmat cat A). MMSI: 636091501.

NotesDate/timePositionNaut miles runAvg speedWind from/ knotsBaromVisibWave heightAir tempDewpointWater temp
2014-Apr-17 06:34N 50°16' W 000°29'1716.6
2014-Apr-17 05:33N 50°12' W 000°55'1515.3
2014-Apr-17 04:34N 50°08' W 001°18'1414.0
2014-Apr-17 03:32N 50°04' W 001°39'1712.9
2014-Apr-17 02:14N 49°59' W 002°04'812.4
2014-Apr-17 01:33N 49°57' W 002°17'1414.0
2014-Apr-17 00:33N 49°53' W 002°38'1515.0
2014-Apr-16 23:33N 49°48' W 002°59'2215.7
2014-Apr-16 22:11N 49°37' W 003°28'75816.3
2014-Apr-14 23:34N 37°47' W 009°35'2018.7
2014-Apr-14 22:31N 37°28' W 009°29'20816.1
2014-Apr-14 09:34N 35°58' W 005°34'1212.5
2014-Apr-14 08:34N 36°08' W 005°24'2 1.8
2014-Apr-14 07:33N 36°09' W 005°26'0 0.0
2014-Apr-14 06:33N 36°09' W 005°26'0 0.0
2014-Apr-14 05:33N 36°09' W 005°26'0 0.0
2014-Apr-13 22:33N 36°09' W 005°26'0 0.0
2014-Apr-13 21:33N 36°09' W 005°26'0 0.0
2014-Apr-13 20:33N 36°09' W 005°26'0 0.0
2014-Apr-13 19:33N 36°09' W 005°26'0 0.0
2014-Apr-13 18:33N 36°09' W 005°26'0 0.0
2014-Apr-13 17:33N 36°09' W 005°26'0 0.0
2014-Apr-13 16:33N 36°09' W 005°26'0 0.0
2014-Apr-13 15:33N 36°09' W 005°26'0 0.0
2014-Apr-13 14:33N 36°09' W 005°26'0 0.0
2014-Apr-13 13:33N 36°09' W 005°26'0 0.0
2014-Apr-13 12:33N 36°09' W 005°26'2 2.0
2014-Apr-13 11:33N 36°09' W 005°24'2 2.5
2014-Apr-13 10:32N 36°06' W 005°23'5 5.0
2014-Apr-13 09:33N 36°04' W 005°18'9 9.4
2014-Apr-13 08:33N 36°04' W 005°06'1110.7
2014-Apr-13 07:31N 36°06' W 004°53'55116.2
2014-Apr-11 21:33N 37°29' E 006°28'1817.2
2014-Apr-11 20:31N 37°32' E 006°50'1817.7
2014-Apr-11 19:32N 37°35' E 007°11'5217.3
2014-Apr-11 16:33N 37°43' E 008°16'1716.8
2014-Apr-11 15:33N 37°45' E 008°37'3316.5
2014-Apr-11 13:33N 37°42' E 009°19'1717.1
2014-Apr-11 12:33N 37°41' E 009°40'3416.8
2014-Apr-11 10:33N 37°38' E 010°22'1616.1
2014-Apr-11 09:33N 37°34' E 010°42'1616.0
2014-Apr-11 08:34N 37°33' E 011°02'5 5.3
2014-Apr-11 07:33N 37°33' E 011°09'2 2.1
2014-Apr-11 06:32N 37°31' E 011°09'2416.5
2014-Apr-11 05:06N 37°18' E 011°33'1117.0
2014-Apr-11 04:28N 37°12' E 011°44'2117.0
2014-Apr-11 03:14N 37°02' E 012°08'1417.3
2014-Apr-11 02:24N 36°58' E 012°25'  
2014-Apr-08 10:34N 31°21' E 032°23'  

Dump ship's entire track history

sailing weather and tide predictions

CSAV Lonquen — A8OT2 — position and weather